createdAt,value
2019-05-07T00:00:07.704Z,99.90
2019-05-07T00:03:32.721Z,99.90
2019-05-07T00:06:54.690Z,99.90
2019-05-07T00:10:16.848Z,99.90
2019-05-07T00:13:39.063Z,99.90
2019-05-07T00:17:02.268Z,99.90
2019-05-07T00:20:26.620Z,99.90
2019-05-07T00:23:48.951Z,99.90
2019-05-07T00:27:13.084Z,99.90
2019-05-07T00:30:35.109Z,99.90
2019-05-07T00:33:57.242Z,99.90
2019-05-07T00:37:32.546Z,99.90
2019-05-07T00:41:16.365Z,99.90
2019-05-07T00:44:56.606Z,99.90
2019-05-07T00:48:18.999Z,99.90
2019-05-07T00:51:42.462Z,99.90
2019-05-07T00:55:05.371Z,99.90
2019-05-07T00:58:27.611Z,99.90
2019-05-07T01:01:50.143Z,99.90
2019-05-07T01:05:12.794Z,99.90
2019-05-07T01:08:35.291Z,99.90
2019-05-07T01:11:57.964Z,99.90
2019-05-07T01:15:28.742Z,99.90
2019-05-07T01:18:44.319Z,99.90
2019-05-07T01:22:06.839Z,99.90
2019-05-07T01:25:29.526Z,99.90
2019-05-07T01:29:02.854Z,99.90
2019-05-07T01:32:32.991Z,99.90
2019-05-07T01:36:07.864Z,99.90
2019-05-07T01:39:32.476Z,99.90
2019-05-07T01:42:54.622Z,99.90
2019-05-07T01:46:17.196Z,99.90
2019-05-07T01:49:41.993Z,99.90
2019-05-07T01:53:04.017Z,99.90
2019-05-07T01:56:26.668Z,99.90
2019-05-07T01:59:49.302Z,99.90
2019-05-07T02:03:18.935Z,99.90
2019-05-07T02:07:02.679Z,99.90
2019-05-07T02:10:31.938Z,99.90
2019-05-07T02:13:54.363Z,99.90
2019-05-07T02:17:17.210Z,99.90
2019-05-07T02:20:39.847Z,99.90
2019-05-07T02:24:03.348Z,99.90
2019-05-07T02:27:26.375Z,99.90
2019-05-07T02:30:48.568Z,99.90
2019-05-07T02:34:14.053Z,99.90
2019-05-07T02:37:56.842Z,99.90
2019-05-07T02:41:23.421Z,99.90
2019-05-07T02:45:07.020Z,99.90
2019-05-07T02:48:33.423Z,99.90
2019-05-07T02:52:13.453Z,99.90
2019-05-07T02:55:43.432Z,99.90
2019-05-07T02:59:05.478Z,99.90
2019-05-07T03:02:28.191Z,99.90
2019-05-07T03:05:50.206Z,99.90
2019-05-07T03:09:14.410Z,99.90
2019-05-07T03:12:37.019Z,99.90
2019-05-07T03:15:59.721Z,99.90
2019-05-07T03:19:24.143Z,99.90
2019-05-07T03:22:46.792Z,99.90
2019-05-07T03:26:17.237Z,99.90
2019-05-07T03:29:44.193Z,99.90
2019-05-07T03:33:16.088Z,99.90
2019-05-07T03:36:46.631Z,99.90
2019-05-07T03:40:05.173Z,99.90
2019-05-07T03:43:27.685Z,99.90
2019-05-07T03:46:57.787Z,99.90
2019-05-07T03:50:15.164Z,99.90
2019-05-07T03:53:37.923Z,99.90
2019-05-07T03:57:07.436Z,99.90
2019-05-07T04:00:24.747Z,99.90
2019-05-07T04:03:46.971Z,99.90
2019-05-07T04:07:09.307Z,99.90
2019-05-07T04:10:33.731Z,99.90
2019-05-07T04:13:56.601Z,99.90
2019-05-07T04:17:23.200Z,99.90
2019-05-07T04:20:43.784Z,99.90
2019-05-07T04:24:16.394Z,99.90
2019-05-07T04:27:47.245Z,99.90
2019-05-07T04:31:09.737Z,99.90
2019-05-07T04:34:52.983Z,99.90
2019-05-07T04:38:14.466Z,99.90
2019-05-07T04:41:37.076Z,99.90
2019-05-07T04:44:59.749Z,99.90
2019-05-07T04:48:23.284Z,99.90
2019-05-07T04:51:55.365Z,99.90
2019-05-07T04:55:17.950Z,99.90
2019-05-07T04:58:43.075Z,99.90
2019-05-07T05:02:13.548Z,99.90
2019-05-07T05:05:36.004Z,99.90
2019-05-07T05:08:58.833Z,99.90
2019-05-07T05:12:22.955Z,99.90
2019-05-07T05:15:45.258Z,99.90
2019-05-07T05:19:07.378Z,99.90
2019-05-07T05:22:46.638Z,99.90
2019-05-07T05:26:09.143Z,99.90
2019-05-07T05:29:33.335Z,99.90
2019-05-07T05:32:55.891Z,99.90
2019-05-07T05:36:18.529Z,99.90
2019-05-07T05:39:42.717Z,99.90
2019-05-07T05:43:12.680Z,99.90
2019-05-07T05:46:35.169Z,99.90
2019-05-07T05:49:57.762Z,99.90
2019-05-07T05:53:26.800Z,99.90
2019-05-07T05:56:54.138Z,99.90
2019-05-07T06:00:38.577Z,99.90
2019-05-07T06:04:22.865Z,99.90
2019-05-07T06:07:52.104Z,99.90
2019-05-07T06:11:36.763Z,99.90
2019-05-07T06:15:17.119Z,99.90
2019-05-07T06:18:57.150Z,99.90
2019-05-07T06:22:44.906Z,99.90
2019-05-07T06:26:07.311Z,99.90
2019-05-07T06:29:29.350Z,99.90
2019-05-07T06:32:52.368Z,99.90
2019-05-07T06:36:14.700Z,99.90
2019-05-07T06:39:46.042Z,99.90
2019-05-07T06:43:17.792Z,99.90
2019-05-07T06:46:41.943Z,99.90
2019-05-07T06:50:04.969Z,99.90
2019-05-07T06:53:28.978Z,99.90
2019-05-07T06:56:52.384Z,99.90
2019-05-07T07:00:34.592Z,99.90
2019-05-07T07:04:12.993Z,99.90
2019-05-07T07:07:53.044Z,99.90
2019-05-07T07:11:27.189Z,99.90
2019-05-07T07:14:51.787Z,99.90
2019-05-07T07:18:14.084Z,98.80
2019-05-07T07:21:36.187Z,98.90
2019-05-07T07:24:58.604Z,98.40
2019-05-07T07:28:21.926Z,97.10
2019-05-07T07:31:49.168Z,94.70
2019-05-07T07:35:13.131Z,95.50
2019-05-07T07:38:36.450Z,95.60
2019-05-07T07:42:02.894Z,95.20
2019-05-07T07:45:25.316Z,96.70
2019-05-07T07:48:48.199Z,96.80
2019-05-07T07:52:12.190Z,96.20
2019-05-07T07:55:46.298Z,96.70
2019-05-07T07:59:32.704Z,95.00
2019-05-07T08:02:58.056Z,93.10
2019-05-07T08:06:22.398Z,94.20
2019-05-07T08:09:44.522Z,92.40
2019-05-07T08:13:07.188Z,91.80
2019-05-07T08:16:29.500Z,93.00
2019-05-07T08:19:52.147Z,93.90
2019-05-07T08:23:14.903Z,92.40
2019-05-07T08:26:37.620Z,92.40
2019-05-07T08:30:00.111Z,93.20
2019-05-07T08:33:26.688Z,92.80
2019-05-07T08:36:48.759Z,92.10
2019-05-07T08:40:12.841Z,92.90
2019-05-07T08:43:35.333Z,92.10
2019-05-07T08:47:15.170Z,90.40
2019-05-07T08:50:37.493Z,87.50
2019-05-07T08:54:05.861Z,89.00
2019-05-07T08:57:31.704Z,91.20
2019-05-07T09:00:53.788Z,91.70
2019-05-07T09:04:16.359Z,88.60
2019-05-07T09:07:39.057Z,88.70
2019-05-07T09:11:01.844Z,87.40
2019-05-07T09:14:26.201Z,85.20
2019-05-07T09:17:48.477Z,90.00
2019-05-07T09:21:12.622Z,90.70
2019-05-07T09:24:35.570Z,91.10
2019-05-07T09:27:58.088Z,90.60
2019-05-07T09:31:27.890Z,89.10
2019-05-07T09:34:52.030Z,85.50
2019-05-07T09:38:14.805Z,83.60
2019-05-07T09:41:37.226Z,86.20
2019-05-07T09:45:01.745Z,88.80
2019-05-07T09:48:23.987Z,88.60
2019-05-07T09:51:46.465Z,86.50
2019-05-07T09:55:16.523Z,85.30
2019-05-07T09:58:38.772Z,82.10
2019-05-07T10:01:57.168Z,81.70
2019-05-07T10:05:19.619Z,82.00
2019-05-07T10:08:42.353Z,82.80
2019-05-07T10:12:15.960Z,86.60
2019-05-07T10:15:38.568Z,82.50
2019-05-07T10:19:01.394Z,81.50
2019-05-07T10:22:24.030Z,76.80
2019-05-07T10:25:46.505Z,77.00
2019-05-07T10:29:09.127Z,78.20
2019-05-07T10:32:32.226Z,78.50
2019-05-07T10:35:54.916Z,78.90
2019-05-07T10:39:17.465Z,73.80
2019-05-07T10:42:40.106Z,72.70
2019-05-07T10:46:21.389Z,74.60
2019-05-07T10:49:48.569Z,73.30
2019-05-07T10:53:12.575Z,75.00
2019-05-07T10:56:35.001Z,77.10
2019-05-07T10:59:57.154Z,78.40
2019-05-07T11:03:21.759Z,75.20
2019-05-07T11:06:43.741Z,73.50
2019-05-07T11:10:06.635Z,77.20
2019-05-07T11:13:29.275Z,79.10
2019-05-07T11:17:03.502Z,77.10
2019-05-07T11:20:25.985Z,74.90
2019-05-07T11:23:48.433Z,76.10
2019-05-07T11:27:11.903Z,78.90
2019-05-07T11:30:34.509Z,79.90
2019-05-07T11:33:56.894Z,80.00
2019-05-07T11:37:19.462Z,79.30
2019-05-07T11:40:42.910Z,75.60
2019-05-07T11:44:19.663Z,77.30
2019-05-07T11:47:42.268Z,77.50
2019-05-07T11:51:23.213Z,76.70
2019-05-07T11:54:45.794Z,77.30
2019-05-07T11:58:08.030Z,77.40
2019-05-07T12:01:41.601Z,77.90
2019-05-07T12:04:54.529Z,78.10
2019-05-07T12:08:17.206Z,75.80
2019-05-07T12:11:39.330Z,75.10
2019-05-07T12:15:02.511Z,76.40
2019-05-07T12:18:25.178Z,75.00
2019-05-07T12:21:47.860Z,74.70
2019-05-07T12:25:12.058Z,74.40
2019-05-07T12:28:34.174Z,74.80
2019-05-07T12:32:07.335Z,72.20
2019-05-07T12:35:29.979Z,73.30
2019-05-07T12:38:53.238Z,69.00
2019-05-07T12:42:15.786Z,69.50
2019-05-07T12:45:38.080Z,71.50
2019-05-07T12:49:03.059Z,72.30
2019-05-07T12:52:42.447Z,72.40
2019-05-07T12:56:05.690Z,71.10
2019-05-07T12:59:28.081Z,72.00
2019-05-07T13:03:09.827Z,70.10
2019-05-07T13:06:33.465Z,70.40
2019-05-07T13:09:56.013Z,68.70
2019-05-07T13:13:18.440Z,66.70
2019-05-07T13:16:40.544Z,66.60
2019-05-07T13:20:02.722Z,66.60
2019-05-07T13:23:25.355Z,65.20
2019-05-07T13:26:48.077Z,66.90
2019-05-07T13:30:11.843Z,67.10
2019-05-07T13:33:35.233Z,66.80
2019-05-07T13:37:02.660Z,69.90
2019-05-07T13:40:31.570Z,66.20
2019-05-07T13:44:29.277Z,66.30
2019-05-07T13:47:57.973Z,64.80
2019-05-07T13:51:21.703Z,64.40
2019-05-07T13:54:44.074Z,64.30
2019-05-07T13:58:06.442Z,66.50
2019-05-07T14:01:44.353Z,63.50
2019-05-07T14:05:06.745Z,62.90
2019-05-07T14:08:32.042Z,66.80
2019-05-07T14:11:54.757Z,63.40
2019-05-07T14:15:17.237Z,63.20
2019-05-07T14:18:40.148Z,65.40
2019-05-07T14:22:14.685Z,63.30
2019-05-07T14:25:26.688Z,65.20
2019-05-07T14:28:49.480Z,65.10
2019-05-07T14:32:36.923Z,62.90
2019-05-07T14:36:07.872Z,62.50
2019-05-07T14:39:32.673Z,62.20
2019-05-07T14:43:06.690Z,62.10
2019-05-07T14:46:43.589Z,63.00
2019-05-07T14:49:53.259Z,63.90
2019-05-07T14:53:15.804Z,63.30
2019-05-07T14:56:38.796Z,65.30
2019-05-07T15:00:03.283Z,64.40
2019-05-07T15:03:25.251Z,65.90
2019-05-07T15:06:48.910Z,66.50
2019-05-07T15:10:11.552Z,66.10
2019-05-07T15:13:33.962Z,65.40
2019-05-07T15:17:02.280Z,64.20
2019-05-07T15:20:24.928Z,66.90
2019-05-07T15:23:48.203Z,66.40
2019-05-07T15:27:12.196Z,66.60
2019-05-07T15:30:48.544Z,68.70
2019-05-07T15:34:12.410Z,67.70
2019-05-07T15:37:35.371Z,68.00
2019-05-07T15:40:57.742Z,64.90
2019-05-07T15:44:20.271Z,64.90
2019-05-07T15:47:46.730Z,65.10
2019-05-07T15:51:09.192Z,65.40
2019-05-07T15:54:32.560Z,67.20
2019-05-07T15:57:55.542Z,67.30
2019-05-07T16:01:18.035Z,65.40
2019-05-07T16:04:40.734Z,66.40
2019-05-07T16:08:04.250Z,67.20
2019-05-07T16:11:27.167Z,67.70
2019-05-07T16:14:49.601Z,68.00
2019-05-07T16:18:15.875Z,66.90
2019-05-07T16:21:38.429Z,67.60
2019-05-07T16:25:05.193Z,66.60
2019-05-07T16:28:24.928Z,67.40
2019-05-07T16:31:48.888Z,67.30
2019-05-07T16:35:12.452Z,66.30
2019-05-07T16:38:35.086Z,67.50
2019-05-07T16:41:57.456Z,68.70
2019-05-07T16:45:19.747Z,66.70
2019-05-07T16:48:43.864Z,67.10
2019-05-07T16:52:07.916Z,66.00
2019-05-07T16:55:37.046Z,66.90
2019-05-07T16:59:07.556Z,67.60
2019-05-07T17:02:33.979Z,67.70
2019-05-07T17:05:56.284Z,66.80
2019-05-07T17:09:18.983Z,67.00
2019-05-07T17:12:42.951Z,66.70
2019-05-07T17:16:05.544Z,68.80
2019-05-07T17:19:27.982Z,68.90
2019-05-07T17:22:51.946Z,68.40
2019-05-07T17:26:15.585Z,68.30
2019-05-07T17:29:37.978Z,69.90
2019-05-07T17:33:01.934Z,71.00
2019-05-07T17:36:24.582Z,71.90
2019-05-07T17:39:47.034Z,71.60
2019-05-07T17:43:09.423Z,70.90
2019-05-07T17:46:32.510Z,72.30
2019-05-07T17:49:55.089Z,71.80
2019-05-07T17:53:17.159Z,72.20
2019-05-07T17:56:39.704Z,73.40
2019-05-07T18:00:02.329Z,72.80
2019-05-07T18:03:33.054Z,75.10
2019-05-07T18:06:55.715Z,75.00
2019-05-07T18:10:18.206Z,74.60
2019-05-07T18:13:42.285Z,75.70
2019-05-07T18:17:24.014Z,77.70
2019-05-07T18:20:46.446Z,76.10
2019-05-07T18:24:13.748Z,77.10
2019-05-07T18:27:33.459Z,75.70
2019-05-07T18:30:56.151Z,76.00
2019-05-07T18:34:18.474Z,75.90
2019-05-07T18:37:52.556Z,76.70
2019-05-07T18:41:15.448Z,77.00
2019-05-07T18:44:37.913Z,77.20
2019-05-07T18:48:02.294Z,77.70
2019-05-07T18:51:24.474Z,78.00
2019-05-07T18:54:47.973Z,79.00
2019-05-07T18:58:10.735Z,78.60
2019-05-07T19:01:33.075Z,79.30
2019-05-07T19:04:55.780Z,80.10
2019-05-07T19:08:18.195Z,79.70
2019-05-07T19:11:42.566Z,81.00
2019-05-07T19:15:04.398Z,80.20
2019-05-07T19:18:26.810Z,79.10
2019-05-07T19:21:49.085Z,78.70
2019-05-07T19:25:12.056Z,80.20
2019-05-07T19:28:34.928Z,80.60
2019-05-07T19:31:57.533Z,82.30
2019-05-07T19:35:19.980Z,82.40
2019-05-07T19:38:42.776Z,81.90
2019-05-07T19:42:04.943Z,82.00
2019-05-07T19:45:27.440Z,82.10
2019-05-07T19:48:51.922Z,81.40
2019-05-07T19:52:13.879Z,81.90
2019-05-07T19:55:54.890Z,81.30
2019-05-07T19:59:22.108Z,81.10
2019-05-07T20:02:47.226Z,81.30
2019-05-07T20:06:09.786Z,81.70
2019-05-07T20:09:34.762Z,81.80
2019-05-07T20:12:57.107Z,82.60
2019-05-07T20:16:20.412Z,84.10
2019-05-07T20:19:42.804Z,85.30
2019-05-07T20:23:05.191Z,85.60
2019-05-07T20:26:27.671Z,86.40
2019-05-07T20:29:53.544Z,87.10
2019-05-07T20:33:16.073Z,87.50
2019-05-07T20:36:38.406Z,88.80
2019-05-07T20:40:02.834Z,89.60
2019-05-07T20:43:24.618Z,90.20
2019-05-07T20:46:47.035Z,90.40
2019-05-07T20:50:09.546Z,90.70
2019-05-07T20:53:55.155Z,91.10
2019-05-07T20:57:24.774Z,91.40
2019-05-07T21:00:47.654Z,92.10
2019-05-07T21:04:09.817Z,92.00
2019-05-07T21:07:32.784Z,92.70
2019-05-07T21:10:55.428Z,93.30
2019-05-07T21:14:19.004Z,93.70
2019-05-07T21:17:42.873Z,93.90
2019-05-07T21:21:05.395Z,94.60
2019-05-07T21:24:27.748Z,95.30
2019-05-07T21:27:52.985Z,96.30
2019-05-07T21:31:14.142Z,96.60
2019-05-07T21:34:36.811Z,96.90
2019-05-07T21:37:59.096Z,96.90
2019-05-07T21:41:22.738Z,97.50
2019-05-07T21:44:45.386Z,97.90
2019-05-07T21:48:08.154Z,98.60
2019-05-07T21:51:30.615Z,99.00
2019-05-07T21:55:02.219Z,99.60
2019-05-07T21:58:28.470Z,99.50
2019-05-07T22:01:54.212Z,99.80
2019-05-07T22:05:16.780Z,99.90
2019-05-07T22:08:40.591Z,99.90
2019-05-07T22:12:03.827Z,99.90
2019-05-07T22:15:26.497Z,99.90
2019-05-07T22:18:48.960Z,99.90
2019-05-07T22:22:12.352Z,99.90
2019-05-07T22:25:35.287Z,99.90
2019-05-07T22:28:57.934Z,99.90
2019-05-07T22:32:39.454Z,99.90
2019-05-07T22:36:02.075Z,99.90
2019-05-07T22:39:24.599Z,99.90
2019-05-07T22:42:46.734Z,99.90
2019-05-07T22:46:09.263Z,99.90
2019-05-07T22:49:33.309Z,99.90
2019-05-07T22:52:56.174Z,99.90
2019-05-07T22:56:31.966Z,99.90
2019-05-07T22:59:43.352Z,99.90
2019-05-07T23:03:05.960Z,99.90
2019-05-07T23:06:28.563Z,99.90
2019-05-07T23:09:52.221Z,99.90
2019-05-07T23:13:14.819Z,99.90
2019-05-07T23:16:37.251Z,99.90
2019-05-07T23:19:59.371Z,99.90
2019-05-07T23:23:21.989Z,99.90
2019-05-07T23:26:50.326Z,99.90
2019-05-07T23:30:09.863Z,99.90
2019-05-07T23:33:32.483Z,99.90
2019-05-07T23:36:55.333Z,99.90
2019-05-07T23:40:24.716Z,99.90
2019-05-07T23:44:07.303Z,99.90
2019-05-07T23:47:31.810Z,99.90
2019-05-07T23:50:54.608Z,99.90
2019-05-07T23:54:16.964Z,99.90
2019-05-07T23:57:39.274Z,99.90
